createdAt,value
2018-11-23T00:00:15.828Z,86.80
2018-11-23T00:02:45.071Z,75.33
2018-11-23T00:05:13.320Z,75.37
2018-11-23T00:07:43.232Z,74.43
2018-11-23T00:10:13.085Z,78.80
2018-11-23T00:12:41.267Z,81.67
2018-11-23T00:15:13.554Z,76.47
2018-11-23T00:17:41.823Z,81.83
2018-11-23T00:20:12.377Z,77.17
2018-11-23T00:22:40.756Z,89.47
2018-11-23T00:27:45.028Z,82.23
2018-11-23T00:30:15.337Z,79.03
2018-11-23T00:32:43.827Z,80.87
2018-11-23T00:35:14.718Z,73.70
2018-11-23T00:37:43.065Z,86.97
2018-11-23T00:40:13.364Z,76.17
2018-11-23T00:42:42.054Z,81.10
2018-11-23T00:45:12.015Z,77.10
2018-11-23T00:47:40.681Z,85.07
2018-11-23T00:50:11.106Z,82.33
2018-11-23T00:52:39.816Z,81.90
2018-11-23T00:55:10.409Z,77.97
2018-11-23T00:57:39.166Z,75.73
2018-11-23T01:00:14.377Z,85.63
2018-11-23T01:02:42.740Z,76.93
2018-11-23T01:05:12.273Z,76.73
2018-11-23T01:07:41.094Z,81.37
2018-11-23T01:10:10.887Z,85.63
2018-11-23T01:12:39.869Z,85.93
2018-11-23T01:15:08.744Z,80.50
2018-11-23T01:17:37.335Z,79.43
2018-11-23T01:20:08.843Z,81.17
2018-11-23T01:22:37.258Z,85.73
2018-11-23T01:25:07.429Z,78.83
2018-11-23T01:27:35.586Z,90.83
2018-11-23T01:30:04.056Z,79.33
2018-11-23T01:32:32.377Z,80.90
2018-11-23T01:35:00.852Z,75.67
2018-11-23T01:37:29.030Z,86.23
2018-11-23T01:39:57.207Z,81.47
2018-11-23T01:42:25.375Z,85.23
2018-11-23T01:44:53.811Z,89.77
2018-11-23T01:47:22.682Z,83.87
2018-11-23T01:49:51.102Z,85.20
2018-11-23T01:52:19.376Z,87.53
2018-11-23T01:54:47.616Z,93.97
2018-11-23T01:57:16.897Z,86.17
2018-11-23T01:59:45.082Z,83.23
2018-11-23T02:02:13.351Z,92.07
2018-11-23T02:04:41.672Z,105.40
2018-11-23T02:07:09.831Z,77.13
2018-11-23T02:09:38.018Z,88.47
2018-11-23T02:12:06.174Z,83.17
2018-11-23T02:14:34.454Z,87.37
2018-11-23T02:17:02.616Z,92.63
2018-11-23T02:19:30.783Z,81.97
2018-11-23T02:21:59.772Z,83.80
2018-11-23T02:24:27.926Z,79.40
2018-11-23T02:26:56.132Z,82.47
2018-11-23T02:29:24.474Z,90.93
2018-11-23T02:31:52.637Z,81.03
2018-11-23T02:34:20.853Z,83.37
2018-11-23T02:36:49.325Z,86.33
2018-11-23T02:39:17.652Z,79.97
2018-11-23T02:41:45.822Z,84.43
2018-11-23T02:44:14.799Z,90.73
2018-11-23T02:46:42.989Z,84.53
2018-11-23T02:49:11.187Z,85.50
2018-11-23T02:51:39.557Z,83.67
2018-11-23T02:54:07.780Z,81.30
2018-11-23T02:56:44.618Z,89.03
2018-11-23T02:59:12.971Z,87.87
2018-11-23T03:01:41.473Z,91.23
2018-11-23T03:04:10.962Z,89.53
2018-11-23T03:06:39.116Z,83.73
2018-11-23T03:09:09.472Z,86.43
2018-11-23T03:11:40.430Z,87.13
2018-11-23T03:14:09.602Z,86.90
2018-11-23T03:16:38.147Z,81.30
2018-11-23T03:19:06.637Z,84.73
2018-11-23T03:21:35.726Z,83.20
2018-11-23T03:24:04.158Z,79.27
2018-11-23T03:26:32.331Z,77.03
2018-11-23T03:29:00.523Z,87.97
2018-11-23T03:31:28.687Z,79.47
2018-11-23T03:33:57.865Z,80.97
2018-11-23T03:36:26.038Z,77.90
2018-11-23T03:38:55.181Z,84.30
2018-11-23T03:41:23.365Z,88.67
2018-11-23T03:43:51.558Z,83.80
2018-11-23T03:46:19.832Z,88.03
2018-11-23T03:48:48.028Z,89.53
2018-11-23T03:51:16.225Z,79.47
2018-11-23T03:53:44.593Z,94.40
2018-11-23T03:56:12.775Z,83.73
2018-11-23T03:58:40.938Z,91.27
2018-11-23T04:01:09.103Z,88.53
2018-11-23T04:03:37.257Z,83.07
2018-11-23T04:06:05.674Z,80.27
2018-11-23T04:08:33.968Z,86.33
2018-11-23T04:11:02.177Z,82.23
2018-11-23T04:13:31.115Z,84.70
2018-11-23T04:15:59.469Z,95.20
2018-11-23T04:18:28.208Z,91.93
2018-11-23T04:21:01.512Z,87.67
2018-11-23T04:23:30.760Z,85.33
2018-11-23T04:25:59.284Z,88.33
2018-11-23T04:28:27.518Z,85.20
2018-11-23T04:30:55.866Z,85.43
2018-11-23T04:33:24.347Z,85.93
2018-11-23T04:35:52.501Z,89.57
2018-11-23T04:38:21.042Z,88.23
2018-11-23T04:40:49.224Z,97.07
2018-11-23T04:43:17.413Z,94.80
2018-11-23T04:45:45.607Z,97.63
2018-11-23T04:48:13.815Z,83.57
2018-11-23T04:50:42.080Z,87.03
2018-11-23T04:53:10.248Z,77.60
2018-11-23T04:55:38.458Z,82.77
2018-11-23T04:58:06.652Z,88.43
2018-11-23T05:00:35.118Z,79.97
2018-11-23T05:03:03.296Z,80.47
2018-11-23T05:05:32.600Z,80.03
2018-11-23T05:08:00.766Z,86.17
2018-11-23T05:10:28.929Z,82.03
2018-11-23T05:12:57.572Z,78.97
2018-11-23T05:15:27.068Z,78.37
2018-11-23T05:17:55.255Z,83.60
2018-11-23T05:20:23.783Z,73.57
2018-11-23T05:22:52.070Z,70.27
2018-11-23T05:25:20.802Z,76.57
2018-11-23T05:30:45.808Z,82.73
2018-11-23T05:33:15.248Z,84.47
2018-11-23T05:35:43.891Z,74.20
2018-11-23T05:38:12.058Z,69.93
2018-11-23T05:40:40.466Z,76.23
2018-11-23T05:43:08.618Z,85.67
2018-11-23T05:45:36.805Z,75.27
2018-11-23T05:48:05.105Z,82.73
2018-11-23T05:50:33.325Z,78.60
2018-11-23T05:53:01.723Z,84.07
2018-11-23T05:55:30.091Z,78.73
2018-11-23T05:57:58.252Z,75.43
2018-11-23T06:00:28.791Z,70.77
2018-11-23T06:02:56.982Z,75.93
2018-11-23T06:05:25.174Z,73.70
2018-11-23T06:07:53.344Z,73.50
2018-11-23T06:10:22.027Z,78.73
2018-11-23T06:12:50.295Z,74.63
2018-11-23T06:15:19.812Z,76.80
2018-11-23T06:17:48.318Z,75.57
2018-11-23T06:20:18.404Z,76.27
2018-11-23T06:22:47.556Z,76.43
2018-11-23T06:25:25.263Z,77.50
2018-11-23T06:27:53.502Z,74.20
2018-11-23T06:30:21.698Z,72.90
2018-11-23T06:33:01.325Z,75.13
2018-11-23T06:35:29.733Z,88.40
2018-11-23T06:37:58.294Z,86.67
2018-11-23T06:40:27.766Z,82.97
2018-11-23T06:45:54.550Z,83.47
2018-11-23T06:48:23.100Z,86.40
2018-11-23T06:50:51.493Z,79.53
2018-11-23T06:53:19.841Z,83.77
2018-11-23T06:55:48.665Z,78.93
2018-11-23T06:58:18.042Z,79.57
2018-11-23T07:00:46.230Z,80.00
2018-11-23T07:03:14.405Z,80.67
2018-11-23T07:05:42.964Z,83.50
2018-11-23T07:08:19.729Z,80.87
2018-11-23T07:10:48.067Z,97.93
2018-11-23T07:13:17.064Z,76.13
2018-11-23T07:15:45.740Z,90.17
2018-11-23T07:18:14.013Z,99.90
2018-11-23T07:20:42.460Z,95.53
2018-11-23T07:23:10.671Z,86.60
2018-11-23T07:25:42.535Z,90.83
2018-11-23T07:28:35.629Z,81.73
2018-11-23T07:31:11.210Z,86.93
2018-11-23T07:34:09.801Z,74.33
2018-11-23T07:36:45.477Z,92.73
2018-11-23T07:39:24.937Z,83.20
2018-11-23T07:42:06.250Z,84.70
2018-11-23T07:46:42.665Z,76.27
2018-11-23T07:49:11.079Z,76.17
2018-11-23T07:51:39.434Z,81.33
2018-11-23T07:54:07.609Z,82.20
2018-11-23T07:56:36.134Z,76.47
2018-11-23T07:59:04.332Z,79.00
2018-11-23T08:01:32.496Z,86.47
2018-11-23T08:04:00.673Z,84.27
2018-11-23T08:06:28.820Z,70.40
2018-11-23T08:08:57.127Z,77.60
2018-11-23T08:11:25.331Z,75.57
2018-11-23T08:13:53.600Z,69.60
2018-11-23T08:16:21.801Z,75.83
2018-11-23T08:18:50.669Z,75.53
2018-11-23T08:21:18.829Z,74.20
2018-11-23T08:23:47.150Z,79.07
2018-11-23T08:26:15.453Z,79.10
2018-11-23T08:28:43.657Z,74.17
2018-11-23T08:31:11.856Z,70.67
2018-11-23T08:33:40.123Z,79.53
2018-11-23T08:36:08.367Z,75.43
2018-11-23T08:38:36.548Z,80.40
2018-11-23T08:41:05.536Z,74.10
2018-11-23T08:43:32.900Z,77.57
2018-11-23T08:46:01.273Z,74.70
2018-11-23T08:48:30.262Z,75.40
2018-11-23T08:50:58.458Z,77.63
2018-11-23T08:53:33.697Z,83.33
2018-11-23T08:56:01.863Z,87.57
2018-11-23T08:58:30.301Z,79.03
2018-11-23T09:00:58.551Z,81.77
2018-11-23T09:03:27.439Z,69.57
2018-11-23T09:05:55.715Z,72.07
2018-11-23T09:08:24.002Z,79.60
2018-11-23T09:10:52.188Z,73.13
2018-11-23T09:13:20.418Z,79.80
2018-11-23T09:15:48.726Z,80.00
2018-11-23T09:18:16.906Z,71.50
2018-11-23T09:20:45.076Z,76.57
2018-11-23T09:23:13.300Z,81.27
2018-11-23T09:25:41.464Z,74.57
2018-11-23T09:28:10.017Z,79.47
2018-11-23T09:30:38.244Z,71.00
2018-11-23T09:33:06.906Z,68.37
2018-11-23T09:35:35.172Z,67.50
2018-11-23T09:38:04.493Z,69.23
2018-11-23T09:40:32.664Z,66.77
2018-11-23T09:43:00.885Z,74.27
2018-11-23T09:45:31.601Z,68.03
2018-11-23T09:48:01.224Z,61.40
2018-11-23T09:50:30.455Z,70.97
2018-11-23T09:52:59.854Z,72.83
2018-11-23T09:55:29.092Z,72.27
2018-11-23T09:57:57.277Z,64.73
2018-11-23T10:00:26.877Z,65.07
2018-11-23T10:02:56.608Z,66.03
2018-11-23T10:05:25.474Z,67.77
2018-11-23T10:07:55.242Z,63.83
2018-11-23T10:10:24.088Z,67.27
2018-11-23T10:12:52.279Z,71.30
2018-11-23T10:15:21.159Z,62.43
2018-11-23T10:17:49.318Z,64.30
2018-11-23T10:20:18.809Z,65.40
2018-11-23T10:22:47.296Z,69.87
2018-11-23T10:25:17.128Z,61.30
2018-11-23T10:27:45.595Z,68.80
2018-11-23T10:30:16.160Z,68.50
2018-11-23T10:32:45.260Z,71.13
2018-11-23T10:35:13.439Z,64.97
2018-11-23T10:37:42.365Z,66.67
2018-11-23T10:40:12.993Z,69.67
2018-11-23T10:42:41.507Z,67.80
2018-11-23T10:45:20.277Z,66.00
2018-11-23T10:47:48.991Z,71.30
2018-11-23T10:50:19.778Z,64.07
2018-11-23T10:52:48.099Z,65.00
2018-11-23T10:55:18.451Z,66.93
2018-11-23T10:57:46.676Z,55.83
2018-11-23T11:00:23.586Z,58.80
2018-11-23T11:02:58.218Z,54.40
2018-11-23T11:06:04.475Z,63.60
2018-11-23T11:08:32.667Z,64.67
2018-11-23T11:11:00.863Z,67.90
2018-11-23T11:13:29.034Z,63.10
2018-11-23T11:15:57.595Z,59.90
2018-11-23T11:18:25.784Z,56.50
2018-11-23T11:20:53.946Z,66.63
2018-11-23T11:23:22.222Z,64.37
2018-11-23T11:25:50.539Z,64.93
2018-11-23T11:28:18.720Z,56.80
2018-11-23T11:30:46.904Z,63.83
2018-11-23T11:33:15.200Z,63.10
2018-11-23T11:35:43.417Z,63.67
2018-11-23T11:38:11.619Z,61.17
2018-11-23T11:40:39.942Z,58.30
2018-11-23T11:43:08.160Z,61.57
2018-11-23T11:45:36.333Z,64.23
2018-11-23T11:48:04.604Z,61.10
2018-11-23T11:50:32.815Z,66.43
2018-11-23T11:53:01.020Z,63.80
2018-11-23T11:55:29.201Z,57.07
2018-11-23T11:57:57.391Z,63.10
2018-11-23T12:00:26.466Z,64.93
2018-11-23T12:02:55.050Z,65.20
2018-11-23T12:05:23.284Z,60.60
2018-11-23T12:07:51.507Z,60.77
2018-11-23T12:10:22.596Z,60.87
2018-11-23T12:12:51.126Z,58.97
2018-11-23T12:15:19.318Z,57.10
2018-11-23T12:17:47.496Z,61.60
2018-11-23T12:20:19.102Z,61.00
2018-11-23T12:22:47.767Z,68.10
2018-11-23T12:25:16.054Z,69.50
2018-11-23T12:27:44.221Z,66.10
2018-11-23T12:30:15.458Z,63.33
2018-11-23T12:32:44.739Z,59.60
2018-11-23T12:35:13.890Z,66.67
2018-11-23T12:37:42.207Z,68.47
2018-11-23T12:40:12.096Z,71.67
2018-11-23T12:42:40.440Z,60.17
2018-11-23T12:45:10.822Z,61.23
2018-11-23T12:47:39.161Z,62.00
2018-11-23T12:50:09.655Z,56.20
2018-11-23T12:52:37.853Z,59.00
2018-11-23T12:55:18.280Z,67.20
2018-11-23T12:57:47.767Z,68.83
2018-11-23T13:00:24.048Z,63.20
2018-11-23T13:02:54.349Z,67.10
2018-11-23T13:05:23.676Z,62.10
2018-11-23T13:07:52.785Z,62.10
2018-11-23T13:10:23.698Z,68.13
2018-11-23T13:12:52.603Z,62.87
2018-11-23T13:16:24.241Z,64.47
2018-11-23T13:18:53.427Z,61.87
2018-11-23T13:21:22.581Z,63.30
2018-11-23T13:23:51.135Z,58.63
2018-11-23T13:26:19.543Z,65.37
2018-11-23T13:28:54.843Z,57.00
2018-11-23T13:31:23.932Z,60.10
2018-11-23T13:33:53.907Z,63.73
2018-11-23T13:36:22.235Z,65.43
2018-11-23T13:38:50.442Z,64.13
2018-11-23T13:41:19.671Z,60.57
2018-11-23T13:43:47.965Z,63.50
2018-11-23T13:46:17.395Z,68.27
2018-11-23T13:48:45.664Z,66.63
2018-11-23T13:51:15.255Z,62.77
2018-11-23T13:53:43.736Z,70.83
2018-11-23T13:56:12.105Z,69.07
2018-11-23T13:58:40.713Z,63.37
2018-11-23T14:01:08.965Z,62.00
2018-11-23T14:03:37.459Z,62.63
2018-11-23T14:06:06.345Z,63.13
2018-11-23T14:08:34.948Z,64.07
2018-11-23T14:11:14.179Z,70.70
2018-11-23T14:13:43.078Z,64.73
2018-11-23T14:16:11.263Z,61.83
2018-11-23T14:18:39.543Z,68.90
2018-11-23T14:21:07.808Z,64.17
2018-11-23T14:23:36.000Z,62.53
2018-11-23T14:26:05.140Z,65.13
2018-11-23T14:28:34.382Z,73.97
2018-11-23T14:31:02.596Z,60.57
2018-11-23T14:33:30.998Z,70.73
2018-11-23T14:35:59.386Z,71.30
2018-11-23T14:38:27.630Z,63.60
2018-11-23T14:40:56.068Z,62.57
2018-11-23T14:43:24.354Z,66.47
2018-11-23T14:45:52.772Z,71.83
2018-11-23T14:48:22.142Z,64.50
2018-11-23T14:50:51.904Z,70.67
2018-11-23T14:53:39.434Z,72.33
2018-11-23T14:56:16.400Z,71.50
2018-11-23T14:58:44.769Z,72.37
2018-11-23T15:01:13.102Z,72.43
2018-11-23T15:03:45.210Z,85.87
2018-11-23T15:06:14.165Z,72.03
2018-11-23T15:08:42.664Z,77.63
2018-11-23T15:11:10.858Z,77.40
2018-11-23T15:13:39.067Z,77.07
2018-11-23T15:16:07.474Z,69.97
2018-11-23T15:18:35.868Z,80.27
2018-11-23T15:21:04.112Z,73.60
2018-11-23T15:23:32.332Z,74.37
2018-11-23T15:26:00.525Z,79.90
2018-11-23T15:28:28.763Z,82.13
2018-11-23T15:30:56.953Z,74.40
2018-11-23T15:33:25.236Z,84.80
2018-11-23T15:35:53.406Z,74.40
2018-11-23T15:38:23.215Z,80.20
2018-11-23T15:40:51.366Z,77.53
2018-11-23T15:43:20.414Z,73.30
2018-11-23T15:47:13.194Z,68.60
2018-11-23T15:49:41.985Z,80.37
2018-11-23T15:52:10.212Z,77.00
2018-11-23T15:54:40.559Z,91.30
2018-11-23T15:57:09.517Z,83.73
2018-11-23T15:59:38.829Z,77.63
2018-11-23T16:02:25.981Z,85.53
2018-11-23T16:04:54.880Z,76.67
2018-11-23T16:07:23.224Z,73.93
2018-11-23T16:09:51.399Z,83.80
2018-11-23T16:12:19.587Z,81.83
2018-11-23T16:14:47.777Z,77.70
2018-11-23T16:17:16.154Z,77.30
2018-11-23T16:19:44.501Z,84.90
2018-11-23T16:22:12.873Z,83.07
2018-11-23T16:24:44.791Z,87.43
2018-11-23T16:27:13.185Z,88.87
2018-11-23T16:29:41.433Z,78.60
2018-11-23T16:32:09.795Z,83.90
2018-11-23T16:34:38.288Z,88.30
2018-11-23T16:37:07.606Z,86.20
2018-11-23T16:39:36.014Z,83.93
2018-11-23T16:42:04.768Z,85.57
2018-11-23T16:44:33.303Z,96.83
2018-11-23T16:47:01.623Z,94.77
2018-11-23T16:49:30.020Z,91.93
2018-11-23T16:51:58.296Z,103.77
2018-11-23T16:54:26.514Z,109.53
2018-11-23T16:56:55.015Z,100.50
2018-11-23T16:59:26.409Z,97.70
2018-11-23T17:01:54.767Z,107.30
2018-11-23T17:04:38.094Z,101.13
2018-11-23T17:07:12.651Z,103.87
2018-11-23T17:09:45.035Z,105.13
2018-11-23T17:12:13.613Z,102.53
2018-11-23T17:14:42.884Z,103.93
2018-11-23T17:17:11.897Z,97.90
2018-11-23T17:19:40.515Z,108.90
2018-11-23T17:22:08.876Z,116.00
2018-11-23T17:24:38.696Z,125.73
2018-11-23T17:27:08.267Z,117.93
2018-11-23T17:29:36.734Z,109.90
2018-11-23T17:32:05.187Z,128.07
2018-11-23T17:34:36.409Z,112.37
2018-11-23T17:37:07.568Z,120.13
2018-11-23T17:39:36.248Z,131.53
2018-11-23T17:42:04.854Z,110.97
2018-11-23T17:44:34.604Z,120.30
2018-11-23T17:47:02.984Z,131.93
2018-11-23T17:49:31.640Z,120.07
2018-11-23T17:52:00.449Z,140.37
2018-11-23T17:54:29.116Z,122.17
2018-11-23T17:56:57.460Z,126.80
2018-11-23T17:59:25.709Z,118.33
2018-11-23T18:04:52.083Z,112.83
2018-11-23T18:07:20.389Z,107.73
2018-11-23T18:09:51.150Z,116.57
2018-11-23T18:12:23.618Z,113.53
2018-11-23T18:14:52.227Z,113.47
2018-11-23T18:17:20.753Z,119.40
2018-11-23T18:19:49.094Z,113.20
2018-11-23T18:22:17.497Z,114.83
2018-11-23T18:24:45.881Z,118.23
2018-11-23T18:27:21.274Z,109.20
2018-11-23T18:29:52.057Z,119.03
2018-11-23T18:56:32.898Z,98.87
2018-11-23T18:59:01.222Z,93.73
2018-11-23T19:01:30.109Z,100.83
2018-11-23T19:03:58.594Z,101.77
2018-11-23T19:06:27.257Z,93.60
2018-11-23T19:08:56.605Z,99.20
2018-11-23T19:11:25.145Z,101.77
2018-11-23T19:13:53.735Z,100.53
2018-11-23T19:16:24.812Z,84.87
2018-11-23T19:18:56.578Z,92.00
2018-11-23T19:21:25.213Z,95.70
2018-11-23T19:23:53.958Z,86.27
2018-11-23T19:26:24.274Z,87.00
2018-11-23T19:29:26.116Z,90.37
2018-11-23T19:31:58.572Z,86.30
2018-11-23T19:34:29.005Z,86.37
2018-11-23T19:36:57.401Z,86.40
2018-11-23T19:45:43.568Z,87.40
2018-11-23T19:48:36.441Z,81.37
2018-11-23T19:51:18.384Z,71.17
2018-11-23T19:53:46.800Z,73.70
2018-11-23T19:56:15.029Z,79.33
2018-11-23T19:58:43.250Z,80.80
2018-11-23T20:01:12.720Z,85.40
2018-11-23T20:03:40.926Z,77.90
2018-11-23T20:06:09.149Z,68.93
2018-11-23T20:08:37.414Z,76.77
2018-11-23T20:11:05.627Z,70.57
2018-11-23T20:13:33.967Z,75.67
2018-11-23T20:16:02.256Z,83.37
2018-11-23T20:18:30.465Z,74.40
2018-11-23T20:20:58.657Z,78.77
2018-11-23T20:23:26.856Z,88.20
2018-11-23T20:25:55.096Z,76.37
2018-11-23T20:28:23.486Z,86.80
2018-11-23T20:30:58.427Z,84.63
2018-11-23T20:33:26.805Z,77.63
2018-11-23T20:35:55.222Z,72.90
2018-11-23T20:38:23.465Z,78.30
2018-11-23T20:40:51.759Z,89.67
2018-11-23T20:43:22.091Z,77.87
2018-11-23T20:45:50.447Z,80.30
2018-11-23T20:48:18.830Z,79.63
2018-11-23T20:50:47.352Z,73.40
2018-11-23T20:53:15.851Z,79.83
2018-11-23T20:55:44.192Z,76.17
2018-11-23T20:58:12.402Z,79.23
2018-11-23T21:00:40.628Z,77.40
2018-11-23T21:03:08.947Z,69.27
2018-11-23T21:05:37.239Z,73.40
2018-11-23T21:08:05.541Z,77.30
2018-11-23T21:10:41.696Z,79.43
2018-11-23T21:14:18.860Z,76.73
2018-11-23T21:16:47.431Z,84.87
2018-11-23T21:19:15.688Z,80.03
2018-11-23T21:21:43.884Z,77.50
2018-11-23T21:24:12.215Z,81.27
2018-11-23T21:26:40.639Z,72.37
2018-11-23T21:29:09.631Z,79.80
2018-11-23T21:31:37.979Z,83.60
2018-11-23T21:36:47.220Z,74.17
2018-11-23T21:39:20.183Z,73.63
2018-11-23T21:41:49.430Z,84.40
2018-11-23T21:44:18.220Z,75.43
2018-11-23T21:46:47.281Z,81.33
2018-11-23T21:49:15.806Z,79.23
2018-11-23T21:51:44.603Z,84.20
2018-11-23T21:54:15.653Z,70.33
2018-11-23T21:56:44.924Z,70.93
2018-11-23T21:59:13.557Z,61.90
2018-11-23T22:01:41.824Z,68.30
2018-11-23T22:04:10.344Z,73.40
2018-11-23T22:06:43.466Z,66.27
2018-11-23T22:09:12.158Z,68.43
2018-11-23T22:11:40.884Z,68.63
2018-11-23T22:14:09.169Z,66.00
2018-11-23T22:16:45.060Z,67.27
2018-11-23T22:22:10.932Z,63.80
2018-11-23T22:24:41.385Z,65.10
2018-11-23T22:27:13.828Z,63.87
2018-11-23T22:30:26.934Z,60.50
2018-11-23T22:36:10.492Z,62.50
2018-11-23T22:38:45.738Z,59.43
2018-11-23T22:41:28.089Z,60.17
2018-11-23T22:43:58.404Z,61.60
2018-11-23T22:46:37.662Z,56.80
2018-11-23T22:49:06.790Z,58.50
2018-11-23T22:51:45.658Z,60.70
2018-11-23T22:54:18.320Z,51.60
2018-11-23T22:56:46.642Z,50.00
2018-11-23T22:59:14.986Z,44.03
2018-11-23T23:01:43.175Z,44.53
2018-11-23T23:04:11.387Z,47.83
2018-11-23T23:06:42.566Z,50.27
2018-11-23T23:09:10.868Z,53.00
2018-11-23T23:11:39.064Z,44.67
2018-11-23T23:14:07.234Z,55.30
2018-11-23T23:16:35.552Z,54.80
2018-11-23T23:19:03.743Z,43.53
2018-11-23T23:21:31.931Z,52.97
2018-11-23T23:24:00.123Z,45.73
2018-11-23T23:26:28.402Z,46.67
2018-11-23T23:28:56.572Z,50.10
2018-11-23T23:31:24.901Z,52.73
2018-11-23T23:33:53.074Z,57.80
2018-11-23T23:36:21.285Z,58.77
2018-11-23T23:38:49.475Z,60.23
2018-11-23T23:41:17.716Z,63.27
2018-11-23T23:43:45.953Z,58.20
2018-11-23T23:46:14.209Z,55.90
2018-11-23T23:48:42.430Z,56.03
2018-11-23T23:51:10.728Z,53.93
2018-11-23T23:53:39.066Z,57.80
2018-11-23T23:56:07.248Z,51.67
2018-11-23T23:58:51.873Z,51.37
